sensor_id;sensor_type;location;lat;lon;timestamp;P1;durP1;ratioP1;P2;durP2;ratioP2
7340;SDS011;6870;50.944;6.932;2024-01-25T00:00:22;12.90;;;8.50;;
7340;SDS011;6870;50.944;6.932;2024-01-25T00:02:50;11.97;;;7.30;;
7340;SDS011;6870;50.944;6.932;2024-01-25T00:05:18;11.20;;;7.90;;
7340;SDS011;6870;50.944;6.932;2024-01-25T00:07:47;11.20;;;7.30;;
7340;SDS011;6870;50.944;6.932;2024-01-25T00:10:16;9.63;;;7.43;;
7340;SDS011;6870;50.944;6.932;2024-01-25T00:12:45;11.50;;;8.10;;
7340;SDS011;6870;50.944;6.932;2024-01-25T00:15:15;7.73;;;6.27;;
7340;SDS011;6870;50.944;6.932;2024-01-25T00:17:43;8.77;;;6.20;;
7340;SDS011;6870;50.944;6.932;2024-01-25T00:20:12;8.23;;;6.00;;
7340;SDS011;6870;50.944;6.932;2024-01-25T00:22:40;8.43;;;6.10;;
7340;SDS011;6870;50.944;6.932;2024-01-25T00:25:08;9.73;;;6.70;;
7340;SDS011;6870;50.944;6.932;2024-01-25T00:27:37;9.00;;;5.87;;
7340;SDS011;6870;50.944;6.932;2024-01-25T00:30:05;7.70;;;6.70;;
7340;SDS011;6870;50.944;6.932;2024-01-25T00:32:36;8.40;;;5.77;;
7340;SDS011;6870;50.944;6.932;2024-01-25T00:35:04;11.83;;;7.00;;
7340;SDS011;6870;50.944;6.932;2024-01-25T00:37:36;12.00;;;7.50;;
7340;SDS011;6870;50.944;6.932;2024-01-25T00:40:05;11.00;;;7.27;;
7340;SDS011;6870;50.944;6.932;2024-01-25T00:42:36;11.37;;;7.50;;
7340;SDS011;6870;50.944;6.932;2024-01-25T00:45:10;10.57;;;6.80;;
7340;SDS011;6870;50.944;6.932;2024-01-25T00:47:41;8.77;;;6.07;;
7340;SDS011;6870;50.944;6.932;2024-01-25T00:50:10;11.00;;;8.00;;
7340;SDS011;6870;50.944;6.932;2024-01-25T00:52:40;9.93;;;6.77;;
7340;SDS011;6870;50.944;6.932;2024-01-25T00:55:09;10.40;;;7.37;;
7340;SDS011;6870;50.944;6.932;2024-01-25T00:57:39;10.90;;;6.83;;
7340;SDS011;6870;50.944;6.932;2024-01-25T01:00:08;6.80;;;5.80;;
7340;SDS011;6870;50.944;6.932;2024-01-25T01:02:39;10.97;;;6.80;;
7340;SDS011;6870;50.944;6.932;2024-01-25T01:05:11;12.13;;;7.50;;
7340;SDS011;6870;50.944;6.932;2024-01-25T01:07:41;8.43;;;6.23;;
7340;SDS011;6870;50.944;6.932;2024-01-25T01:10:11;9.50;;;6.13;;
7340;SDS011;6870;50.944;6.932;2024-01-25T01:12:40;8.27;;;5.50;;
7340;SDS011;6870;50.944;6.932;2024-01-25T01:15:08;8.90;;;6.17;;
7340;SDS011;6870;50.944;6.932;2024-01-25T01:17:37;8.50;;;5.60;;
7340;SDS011;6870;50.944;6.932;2024-01-25T01:20:07;8.50;;;6.00;;
7340;SDS011;6870;50.944;6.932;2024-01-25T01:22:36;8.97;;;6.60;;
7340;SDS011;6870;50.944;6.932;2024-01-25T01:25:05;8.07;;;6.07;;
7340;SDS011;6870;50.944;6.932;2024-01-25T01:27:34;12.80;;;7.73;;
7340;SDS011;6870;50.944;6.932;2024-01-25T01:30:02;10.20;;;6.67;;
7340;SDS011;6870;50.944;6.932;2024-01-25T01:32:34;9.70;;;6.20;;
7340;SDS011;6870;50.944;6.932;2024-01-25T01:35:03;9.53;;;6.40;;
7340;SDS011;6870;50.944;6.932;2024-01-25T01:37:33;8.00;;;5.93;;
7340;SDS011;6870;50.944;6.932;2024-01-25T01:40:01;8.87;;;6.60;;
7340;SDS011;6870;50.944;6.932;2024-01-25T01:42:30;8.83;;;5.70;;
7340;SDS011;6870;50.944;6.932;2024-01-25T01:45:00;8.47;;;6.07;;
7340;SDS011;6870;50.944;6.932;2024-01-25T01:47:28;7.80;;;5.60;;
7340;SDS011;6870;50.944;6.932;2024-01-25T01:49:56;9.40;;;6.27;;
7340;SDS011;6870;50.944;6.932;2024-01-25T01:52:25;10.10;;;6.80;;
7340;SDS011;6870;50.944;6.932;2024-01-25T01:54:54;11.30;;;6.90;;
7340;SDS011;6870;50.944;6.932;2024-01-25T01:57:23;8.17;;;5.23;;
7340;SDS011;6870;50.944;6.932;2024-01-25T01:59:52;9.40;;;6.17;;
7340;SDS011;6870;50.944;6.932;2024-01-25T02:02:20;12.93;;;6.47;;
7340;SDS011;6870;50.944;6.932;2024-01-25T02:04:50;8.50;;;6.73;;
7340;SDS011;6870;50.944;6.932;2024-01-25T02:07:18;7.97;;;6.20;;
7340;SDS011;6870;50.944;6.932;2024-01-25T02:09:46;10.40;;;5.37;;
7340;SDS011;6870;50.944;6.932;2024-01-25T02:12:16;12.30;;;6.63;;
7340;SDS011;6870;50.944;6.932;2024-01-25T02:14:45;12.40;;;6.73;;
7340;SDS011;6870;50.944;6.932;2024-01-25T02:17:13;8.57;;;5.90;;
7340;SDS011;6870;50.944;6.932;2024-01-25T02:19:41;7.00;;;4.60;;
7340;SDS011;6870;50.944;6.932;2024-01-25T02:22:10;11.13;;;5.40;;
7340;SDS011;6870;50.944;6.932;2024-01-25T02:24:39;8.77;;;6.17;;
7340;SDS011;6870;50.944;6.932;2024-01-25T02:27:08;9.23;;;5.77;;
7340;SDS011;6870;50.944;6.932;2024-01-25T02:29:36;7.07;;;5.50;;
7340;SDS011;6870;50.944;6.932;2024-01-25T02:32:04;11.50;;;5.60;;
7340;SDS011;6870;50.944;6.932;2024-01-25T02:34:33;7.73;;;5.23;;
7340;SDS011;6870;50.944;6.932;2024-01-25T02:37:01;8.70;;;5.93;;
7340;SDS011;6870;50.944;6.932;2024-01-25T02:39:30;9.43;;;5.80;;
7340;SDS011;6870;50.944;6.932;2024-01-25T02:41:59;9.40;;;5.20;;
7340;SDS011;6870;50.944;6.932;2024-01-25T02:44:27;9.50;;;5.90;;
7340;SDS011;6870;50.944;6.932;2024-01-25T02:46:56;8.97;;;6.47;;
7340;SDS011;6870;50.944;6.932;2024-01-25T02:49:24;11.60;;;6.30;;
7340;SDS011;6870;50.944;6.932;2024-01-25T02:51:52;8.00;;;5.70;;
7340;SDS011;6870;50.944;6.932;2024-01-25T02:54:20;8.50;;;5.90;;
7340;SDS011;6870;50.944;6.932;2024-01-25T02:56:48;9.03;;;6.07;;
7340;SDS011;6870;50.944;6.932;2024-01-25T02:59:18;8.33;;;5.23;;
7340;SDS011;6870;50.944;6.932;2024-01-25T03:01:46;9.60;;;5.77;;
7340;SDS011;6870;50.944;6.932;2024-01-25T03:04:17;7.10;;;5.03;;
7340;SDS011;6870;50.944;6.932;2024-01-25T03:06:45;8.60;;;5.00;;
7340;SDS011;6870;50.944;6.932;2024-01-25T03:09:13;7.40;;;4.97;;
7340;SDS011;6870;50.944;6.932;2024-01-25T03:11:41;9.83;;;5.97;;
7340;SDS011;6870;50.944;6.932;2024-01-25T03:14:10;8.47;;;4.80;;
7340;SDS011;6870;50.944;6.932;2024-01-25T03:16:40;12.90;;;6.00;;
7340;SDS011;6870;50.944;6.932;2024-01-25T03:19:10;11.43;;;6.40;;
7340;SDS011;6870;50.944;6.932;2024-01-25T03:21:38;7.40;;;5.37;;
7340;SDS011;6870;50.944;6.932;2024-01-25T03:24:06;7.23;;;5.37;;
7340;SDS011;6870;50.944;6.932;2024-01-25T03:26:34;6.67;;;4.80;;
7340;SDS011;6870;50.944;6.932;2024-01-25T03:29:03;7.67;;;4.90;;
7340;SDS011;6870;50.944;6.932;2024-01-25T03:31:31;11.50;;;5.00;;
7340;SDS011;6870;50.944;6.932;2024-01-25T03:34:01;8.27;;;5.33;;
7340;SDS011;6870;50.944;6.932;2024-01-25T03:36:29;6.03;;;4.77;;
7340;SDS011;6870;50.944;6.932;2024-01-25T03:38:57;7.80;;;4.30;;
7340;SDS011;6870;50.944;6.932;2024-01-25T03:41:25;7.80;;;5.50;;
7340;SDS011;6870;50.944;6.932;2024-01-25T03:43:55;10.27;;;4.97;;
7340;SDS011;6870;50.944;6.932;2024-01-25T03:46:23;10.03;;;6.30;;
7340;SDS011;6870;50.944;6.932;2024-01-25T03:48:51;8.43;;;5.40;;
7340;SDS011;6870;50.944;6.932;2024-01-25T03:51:22;7.93;;;5.20;;
7340;SDS011;6870;50.944;6.932;2024-01-25T03:53:51;9.80;;;5.20;;
7340;SDS011;6870;50.944;6.932;2024-01-25T03:56:21;8.30;;;4.90;;
7340;SDS011;6870;50.944;6.932;2024-01-25T03:58:49;7.63;;;5.20;;
7340;SDS011;6870;50.944;6.932;2024-01-25T04:01:17;6.27;;;4.20;;
7340;SDS011;6870;50.944;6.932;2024-01-25T04:03:45;6.87;;;4.37;;
7340;SDS011;6870;50.944;6.932;2024-01-25T04:06:14;9.83;;;5.57;;
7340;SDS011;6870;50.944;6.932;2024-01-25T04:08:43;6.17;;;4.87;;
7340;SDS011;6870;50.944;6.932;2024-01-25T04:11:11;7.43;;;4.43;;
7340;SDS011;6870;50.944;6.932;2024-01-25T04:13:40;7.63;;;4.40;;
7340;SDS011;6870;50.944;6.932;2024-01-25T04:16:13;8.90;;;4.50;;
7340;SDS011;6870;50.944;6.932;2024-01-25T04:18:41;6.37;;;4.80;;
7340;SDS011;6870;50.944;6.932;2024-01-25T04:21:09;7.37;;;4.87;;
7340;SDS011;6870;50.944;6.932;2024-01-25T04:23:37;8.00;;;4.17;;
7340;SDS011;6870;50.944;6.932;2024-01-25T04:26:07;6.13;;;4.43;;
7340;SDS011;6870;50.944;6.932;2024-01-25T04:28:35;5.80;;;4.37;;
7340;SDS011;6870;50.944;6.932;2024-01-25T04:31:03;6.77;;;4.73;;
7340;SDS011;6870;50.944;6.932;2024-01-25T04:33:31;7.53;;;5.10;;
7340;SDS011;6870;50.944;6.932;2024-01-25T04:35:59;8.47;;;4.43;;
7340;SDS011;6870;50.944;6.932;2024-01-25T04:38:28;7.17;;;5.30;;
7340;SDS011;6870;50.944;6.932;2024-01-25T04:40:56;9.20;;;5.23;;
7340;SDS011;6870;50.944;6.932;2024-01-25T04:43:25;6.00;;;4.30;;
7340;SDS011;6870;50.944;6.932;2024-01-25T04:45:53;7.30;;;4.60;;
7340;SDS011;6870;50.944;6.932;2024-01-25T04:48:21;6.30;;;4.00;;
7340;SDS011;6870;50.944;6.932;2024-01-25T04:50:49;7.83;;;4.57;;
7340;SDS011;6870;50.944;6.932;2024-01-25T04:53:17;6.07;;;4.40;;
7340;SDS011;6870;50.944;6.932;2024-01-25T04:55:45;6.67;;;4.20;;
7340;SDS011;6870;50.944;6.932;2024-01-25T04:58:13;5.57;;;4.20;;
7340;SDS011;6870;50.944;6.932;2024-01-25T05:00:43;5.73;;;3.80;;
7340;SDS011;6870;50.944;6.932;2024-01-25T05:03:11;6.87;;;4.60;;
7340;SDS011;6870;50.944;6.932;2024-01-25T05:05:40;7.20;;;3.80;;
7340;SDS011;6870;50.944;6.932;2024-01-25T05:08:08;10.00;;;5.00;;
7340;SDS011;6870;50.944;6.932;2024-01-25T05:10:36;5.13;;;3.43;;
7340;SDS011;6870;50.944;6.932;2024-01-25T05:13:04;8.20;;;4.20;;
7340;SDS011;6870;50.944;6.932;2024-01-25T05:15:32;6.97;;;4.17;;
7340;SDS011;6870;50.944;6.932;2024-01-25T05:18:02;6.10;;;4.43;;
7340;SDS011;6870;50.944;6.932;2024-01-25T05:20:31;7.13;;;4.47;;
7340;SDS011;6870;50.944;6.932;2024-01-25T05:23:01;5.87;;;3.70;;
7340;SDS011;6870;50.944;6.932;2024-01-25T05:25:29;7.93;;;4.30;;
7340;SDS011;6870;50.944;6.932;2024-01-25T05:27:58;8.60;;;5.10;;
7340;SDS011;6870;50.944;6.932;2024-01-25T05:30:26;7.70;;;4.80;;
7340;SDS011;6870;50.944;6.932;2024-01-25T05:32:56;6.30;;;3.40;;
7340;SDS011;6870;50.944;6.932;2024-01-25T05:35:25;7.53;;;4.40;;
7340;SDS011;6870;50.944;6.932;2024-01-25T05:37:53;4.77;;;3.60;;
7340;SDS011;6870;50.944;6.932;2024-01-25T05:40:21;5.30;;;3.80;;
7340;SDS011;6870;50.944;6.932;2024-01-25T05:42:50;7.33;;;4.10;;
7340;SDS011;6870;50.944;6.932;2024-01-25T05:45:18;5.43;;;4.27;;
7340;SDS011;6870;50.944;6.932;2024-01-25T05:47:47;5.90;;;4.27;;
7340;SDS011;6870;50.944;6.932;2024-01-25T05:50:16;6.30;;;4.17;;
7340;SDS011;6870;50.944;6.932;2024-01-25T05:52:46;6.60;;;3.73;;
7340;SDS011;6870;50.944;6.932;2024-01-25T05:55:15;5.93;;;4.10;;
7340;SDS011;6870;50.944;6.932;2024-01-25T05:57:43;4.00;;;3.10;;
7340;SDS011;6870;50.944;6.932;2024-01-25T06:00:12;7.50;;;3.77;;
7340;SDS011;6870;50.944;6.932;2024-01-25T06:02:45;5.10;;;4.00;;
7340;SDS011;6870;50.944;6.932;2024-01-25T06:05:13;4.80;;;3.67;;
7340;SDS011;6870;50.944;6.932;2024-01-25T06:07:42;5.77;;;3.70;;
7340;SDS011;6870;50.944;6.932;2024-01-25T06:10:11;6.33;;;3.50;;
7340;SDS011;6870;50.944;6.932;2024-01-25T06:12:40;5.40;;;3.83;;
7340;SDS011;6870;50.944;6.932;2024-01-25T06:15:08;6.80;;;3.50;;
7340;SDS011;6870;50.944;6.932;2024-01-25T06:17:37;6.00;;;3.40;;
7340;SDS011;6870;50.944;6.932;2024-01-25T06:20:05;5.27;;;3.37;;
7340;SDS011;6870;50.944;6.932;2024-01-25T06:22:35;7.17;;;3.67;;
7340;SDS011;6870;50.944;6.932;2024-01-25T06:25:03;6.03;;;3.77;;
7340;SDS011;6870;50.944;6.932;2024-01-25T06:27:35;6.93;;;4.10;;
7340;SDS011;6870;50.944;6.932;2024-01-25T06:30:04;6.60;;;3.40;;
7340;SDS011;6870;50.944;6.932;2024-01-25T06:32:33;4.07;;;2.93;;
7340;SDS011;6870;50.944;6.932;2024-01-25T06:35:02;5.37;;;2.73;;
7340;SDS011;6870;50.944;6.932;2024-01-25T06:37:31;8.50;;;3.93;;
7340;SDS011;6870;50.944;6.932;2024-01-25T06:39:59;4.63;;;3.37;;
7340;SDS011;6870;50.944;6.932;2024-01-25T06:42:27;5.10;;;3.27;;
7340;SDS011;6870;50.944;6.932;2024-01-25T06:44:57;5.50;;;3.43;;
7340;SDS011;6870;50.944;6.932;2024-01-25T06:47:25;4.03;;;2.80;;
7340;SDS011;6870;50.944;6.932;2024-01-25T06:49:53;6.67;;;3.93;;
7340;SDS011;6870;50.944;6.932;2024-01-25T06:52:21;3.73;;;2.90;;
7340;SDS011;6870;50.944;6.932;2024-01-25T06:54:52;4.60;;;2.97;;
7340;SDS011;6870;50.944;6.932;2024-01-25T06:57:20;4.83;;;2.97;;
7340;SDS011;6870;50.944;6.932;2024-01-25T06:59:48;5.00;;;3.60;;
7340;SDS011;6870;50.944;6.932;2024-01-25T07:02:19;4.60;;;3.37;;
7340;SDS011;6870;50.944;6.932;2024-01-25T07:04:48;7.93;;;4.30;;
7340;SDS011;6870;50.944;6.932;2024-01-25T07:07:19;6.27;;;3.67;;
7340;SDS011;6870;50.944;6.932;2024-01-25T07:09:47;5.33;;;3.50;;
7340;SDS011;6870;50.944;6.932;2024-01-25T07:12:15;6.40;;;3.20;;
7340;SDS011;6870;50.944;6.932;2024-01-25T07:14:44;4.30;;;2.97;;
7340;SDS011;6870;50.944;6.932;2024-01-25T07:17:12;7.50;;;3.73;;
7340;SDS011;6870;50.944;6.932;2024-01-25T07:19:41;5.13;;;3.63;;
7340;SDS011;6870;50.944;6.932;2024-01-25T07:22:09;6.73;;;3.43;;
7340;SDS011;6870;50.944;6.932;2024-01-25T07:24:40;4.43;;;2.83;;
7340;SDS011;6870;50.944;6.932;2024-01-25T07:27:08;4.00;;;2.80;;
7340;SDS011;6870;50.944;6.932;2024-01-25T07:29:37;5.80;;;3.23;;
7340;SDS011;6870;50.944;6.932;2024-01-25T07:32:05;5.73;;;4.03;;
7340;SDS011;6870;50.944;6.932;2024-01-25T07:34:34;4.30;;;2.83;;
7340;SDS011;6870;50.944;6.932;2024-01-25T07:37:04;5.53;;;3.17;;
7340;SDS011;6870;50.944;6.932;2024-01-25T07:39:32;6.17;;;3.40;;
7340;SDS011;6870;50.944;6.932;2024-01-25T07:42:00;6.17;;;3.70;;
7340;SDS011;6870;50.944;6.932;2024-01-25T07:44:28;5.50;;;3.23;;
7340;SDS011;6870;50.944;6.932;2024-01-25T07:46:56;4.07;;;3.00;;
7340;SDS011;6870;50.944;6.932;2024-01-25T07:49:25;9.53;;;3.33;;
7340;SDS011;6870;50.944;6.932;2024-01-25T07:51:53;7.20;;;3.57;;
7340;SDS011;6870;50.944;6.932;2024-01-25T07:54:24;5.37;;;3.20;;
7340;SDS011;6870;50.944;6.932;2024-01-25T07:56:52;4.30;;;2.90;;
7340;SDS011;6870;50.944;6.932;2024-01-25T07:59:20;4.70;;;2.70;;
7340;SDS011;6870;50.944;6.932;2024-01-25T08:01:48;4.50;;;3.20;;
7340;SDS011;6870;50.944;6.932;2024-01-25T08:04:17;4.50;;;2.77;;
7340;SDS011;6870;50.944;6.932;2024-01-25T08:06:51;5.43;;;3.20;;
7340;SDS011;6870;50.944;6.932;2024-01-25T08:09:20;5.80;;;3.17;;
7340;SDS011;6870;50.944;6.932;2024-01-25T08:11:49;9.07;;;3.83;;
7340;SDS011;6870;50.944;6.932;2024-01-25T08:14:18;4.83;;;2.90;;
7340;SDS011;6870;50.944;6.932;2024-01-25T08:16:46;4.10;;;2.50;;
7340;SDS011;6870;50.944;6.932;2024-01-25T08:19:14;5.20;;;3.17;;
7340;SDS011;6870;50.944;6.932;2024-01-25T08:21:42;4.97;;;3.60;;
7340;SDS011;6870;50.944;6.932;2024-01-25T08:24:11;5.53;;;3.23;;
7340;SDS011;6870;50.944;6.932;2024-01-25T08:26:39;8.07;;;3.47;;
7340;SDS011;6870;50.944;6.932;2024-01-25T08:29:09;6.97;;;3.50;;
7340;SDS011;6870;50.944;6.932;2024-01-25T08:31:38;6.50;;;3.13;;
7340;SDS011;6870;50.944;6.932;2024-01-25T08:34:06;5.57;;;3.10;;
7340;SDS011;6870;50.944;6.932;2024-01-25T08:36:35;4.43;;;2.80;;
7340;SDS011;6870;50.944;6.932;2024-01-25T08:39:03;5.43;;;3.10;;
7340;SDS011;6870;50.944;6.932;2024-01-25T08:41:31;4.67;;;2.40;;
7340;SDS011;6870;50.944;6.932;2024-01-25T08:43:59;5.90;;;2.73;;
7340;SDS011;6870;50.944;6.932;2024-01-25T08:46:29;4.20;;;2.57;;
7340;SDS011;6870;50.944;6.932;2024-01-25T08:48:57;4.17;;;2.50;;
7340;SDS011;6870;50.944;6.932;2024-01-25T08:51:25;4.37;;;3.07;;
7340;SDS011;6870;50.944;6.932;2024-01-25T08:53:53;3.60;;;2.37;;
7340;SDS011;6870;50.944;6.932;2024-01-25T08:56:21;6.83;;;3.40;;
7340;SDS011;6870;50.944;6.932;2024-01-25T08:58:49;3.97;;;2.90;;
7340;SDS011;6870;50.944;6.932;2024-01-25T09:01:18;7.20;;;3.10;;
7340;SDS011;6870;50.944;6.932;2024-01-25T09:03:48;5.37;;;3.60;;
7340;SDS011;6870;50.944;6.932;2024-01-25T09:06:16;10.53;;;3.40;;
7340;SDS011;6870;50.944;6.932;2024-01-25T09:08:44;5.87;;;3.47;;
7340;SDS011;6870;50.944;6.932;2024-01-25T09:11:12;5.53;;;3.07;;
7340;SDS011;6870;50.944;6.932;2024-01-25T09:13:40;5.33;;;3.20;;
7340;SDS011;6870;50.944;6.932;2024-01-25T09:16:12;5.20;;;3.40;;
7340;SDS011;6870;50.944;6.932;2024-01-25T09:18:40;6.53;;;3.00;;
7340;SDS011;6870;50.944;6.932;2024-01-25T09:21:11;4.30;;;2.97;;
7340;SDS011;6870;50.944;6.932;2024-01-25T09:23:39;4.60;;;2.57;;
7340;SDS011;6870;50.944;6.932;2024-01-25T09:26:07;6.03;;;3.60;;
7340;SDS011;6870;50.944;6.932;2024-01-25T09:28:35;5.73;;;3.13;;
7340;SDS011;6870;50.944;6.932;2024-01-25T09:31:04;4.73;;;3.23;;
7340;SDS011;6870;50.944;6.932;2024-01-25T09:33:33;5.90;;;3.23;;
7340;SDS011;6870;50.944;6.932;2024-01-25T09:36:02;5.00;;;3.20;;
7340;SDS011;6870;50.944;6.932;2024-01-25T09:38:32;5.77;;;3.30;;
7340;SDS011;6870;50.944;6.932;2024-01-25T09:41:00;6.13;;;3.30;;
7340;SDS011;6870;50.944;6.932;2024-01-25T09:43:29;4.80;;;3.37;;
7340;SDS011;6870;50.944;6.932;2024-01-25T09:45:59;5.00;;;3.50;;
7340;SDS011;6870;50.944;6.932;2024-01-25T09:48:29;5.33;;;3.10;;
7340;SDS011;6870;50.944;6.932;2024-01-25T09:50:57;6.17;;;3.47;;
7340;SDS011;6870;50.944;6.932;2024-01-25T09:53:27;6.37;;;4.00;;
7340;SDS011;6870;50.944;6.932;2024-01-25T09:56:03;4.50;;;2.93;;
7340;SDS011;6870;50.944;6.932;2024-01-25T09:58:37;6.93;;;3.80;;
7340;SDS011;6870;50.944;6.932;2024-01-25T10:01:07;5.63;;;3.07;;
7340;SDS011;6870;50.944;6.932;2024-01-25T10:03:37;4.53;;;3.17;;
7340;SDS011;6870;50.944;6.932;2024-01-25T10:06:07;7.03;;;3.70;;
7340;SDS011;6870;50.944;6.932;2024-01-25T10:08:37;6.53;;;3.83;;
7340;SDS011;6870;50.944;6.932;2024-01-25T10:11:05;7.20;;;3.50;;
7340;SDS011;6870;50.944;6.932;2024-01-25T10:13:39;7.10;;;4.30;;
7340;SDS011;6870;50.944;6.932;2024-01-25T10:16:10;5.27;;;3.73;;
7340;SDS011;6870;50.944;6.932;2024-01-25T10:18:41;6.50;;;3.50;;
7340;SDS011;6870;50.944;6.932;2024-01-25T10:21:12;5.40;;;3.70;;
7340;SDS011;6870;50.944;6.932;2024-01-25T10:23:45;5.00;;;3.90;;
7340;SDS011;6870;50.944;6.932;2024-01-25T10:26:15;6.30;;;4.07;;
7340;SDS011;6870;50.944;6.932;2024-01-25T10:28:49;6.10;;;3.70;;
7340;SDS011;6870;50.944;6.932;2024-01-25T10:31:28;6.10;;;3.50;;
7340;SDS011;6870;50.944;6.932;2024-01-25T10:33:59;6.37;;;3.20;;
7340;SDS011;6870;50.944;6.932;2024-01-25T10:36:27;8.57;;;3.50;;
7340;SDS011;6870;50.944;6.932;2024-01-25T10:38:58;6.50;;;3.77;;
7340;SDS011;6870;50.944;6.932;2024-01-25T10:41:31;6.13;;;3.77;;
7340;SDS011;6870;50.944;6.932;2024-01-25T10:44:01;5.87;;;3.70;;
7340;SDS011;6870;50.944;6.932;2024-01-25T10:46:30;5.40;;;3.40;;
7340;SDS011;6870;50.944;6.932;2024-01-25T10:48:59;5.23;;;3.67;;
7340;SDS011;6870;50.944;6.932;2024-01-25T10:51:29;5.00;;;3.30;;
7340;SDS011;6870;50.944;6.932;2024-01-25T10:53:59;6.73;;;3.67;;
7340;SDS011;6870;50.944;6.932;2024-01-25T10:56:28;6.27;;;3.53;;
7340;SDS011;6870;50.944;6.932;2024-01-25T10:58:56;5.70;;;3.70;;
7340;SDS011;6870;50.944;6.932;2024-01-25T11:01:24;5.97;;;3.97;;
7340;SDS011;6870;50.944;6.932;2024-01-25T11:03:55;5.47;;;3.87;;
7340;SDS011;6870;50.944;6.932;2024-01-25T11:06:23;4.90;;;3.70;;
7340;SDS011;6870;50.944;6.932;2024-01-25T11:09:04;4.33;;;3.20;;
7340;SDS011;6870;50.944;6.932;2024-01-25T11:11:35;5.53;;;3.37;;
7340;SDS011;6870;50.944;6.932;2024-01-25T11:14:10;5.67;;;2.80;;
7340;SDS011;6870;50.944;6.932;2024-01-25T11:16:40;7.30;;;4.20;;
7340;SDS011;6870;50.944;6.932;2024-01-25T11:19:15;6.03;;;3.70;;
7340;SDS011;6870;50.944;6.932;2024-01-25T11:21:45;6.17;;;3.40;;
7340;SDS011;6870;50.944;6.932;2024-01-25T11:24:16;5.97;;;3.53;;
7340;SDS011;6870;50.944;6.932;2024-01-25T11:26:48;5.10;;;3.10;;
7340;SDS011;6870;50.944;6.932;2024-01-25T11:29:17;8.77;;;4.30;;
7340;SDS011;6870;50.944;6.932;2024-01-25T11:31:49;6.77;;;4.60;;
7340;SDS011;6870;50.944;6.932;2024-01-25T11:34:19;6.70;;;4.67;;
7340;SDS011;6870;50.944;6.932;2024-01-25T11:36:48;6.10;;;3.87;;
7340;SDS011;6870;50.944;6.932;2024-01-25T11:39:19;8.20;;;4.13;;
7340;SDS011;6870;50.944;6.932;2024-01-25T11:41:47;5.87;;;3.30;;
7340;SDS011;6870;50.944;6.932;2024-01-25T11:44:18;6.77;;;3.73;;
7340;SDS011;6870;50.944;6.932;2024-01-25T11:46:50;7.10;;;4.43;;
7340;SDS011;6870;50.944;6.932;2024-01-25T11:49:18;7.37;;;4.97;;
7340;SDS011;6870;50.944;6.932;2024-01-25T11:51:46;8.50;;;3.70;;
7340;SDS011;6870;50.944;6.932;2024-01-25T11:54:15;8.53;;;4.17;;
7340;SDS011;6870;50.944;6.932;2024-01-25T11:56:44;6.57;;;3.93;;
7340;SDS011;6870;50.944;6.932;2024-01-25T11:59:12;4.80;;;3.27;;
7340;SDS011;6870;50.944;6.932;2024-01-25T12:01:41;5.80;;;3.53;;
7340;SDS011;6870;50.944;6.932;2024-01-25T12:04:09;6.33;;;3.80;;
7340;SDS011;6870;50.944;6.932;2024-01-25T12:06:37;7.07;;;3.53;;
7340;SDS011;6870;50.944;6.932;2024-01-25T12:09:07;4.97;;;3.40;;
7340;SDS011;6870;50.944;6.932;2024-01-25T12:11:36;4.90;;;3.63;;
7340;SDS011;6870;50.944;6.932;2024-01-25T12:14:06;8.13;;;4.40;;
7340;SDS011;6870;50.944;6.932;2024-01-25T12:16:35;5.10;;;3.30;;
7340;SDS011;6870;50.944;6.932;2024-01-25T12:19:05;8.03;;;4.37;;
7340;SDS011;6870;50.944;6.932;2024-01-25T12:21:33;6.97;;;4.33;;
7340;SDS011;6870;50.944;6.932;2024-01-25T12:24:03;6.43;;;3.80;;
7340;SDS011;6870;50.944;6.932;2024-01-25T12:26:33;4.63;;;3.70;;
7340;SDS011;6870;50.944;6.932;2024-01-25T12:29:02;7.27;;;4.13;;
7340;SDS011;6870;50.944;6.932;2024-01-25T12:31:32;6.43;;;3.67;;
7340;SDS011;6870;50.944;6.932;2024-01-25T12:34:01;7.80;;;4.70;;
7340;SDS011;6870;50.944;6.932;2024-01-25T12:36:29;6.20;;;3.73;;
7340;SDS011;6870;50.944;6.932;2024-01-25T12:38:59;7.80;;;3.87;;
7340;SDS011;6870;50.944;6.932;2024-01-25T12:41:28;8.33;;;4.93;;
7340;SDS011;6870;50.944;6.932;2024-01-25T12:43:57;5.70;;;4.20;;
7340;SDS011;6870;50.944;6.932;2024-01-25T12:46:26;5.13;;;3.30;;
7340;SDS011;6870;50.944;6.932;2024-01-25T12:48:55;5.50;;;3.50;;
7340;SDS011;6870;50.944;6.932;2024-01-25T12:51:25;7.03;;;4.67;;
7340;SDS011;6870;50.944;6.932;2024-01-25T12:53:54;5.73;;;4.30;;
7340;SDS011;6870;50.944;6.932;2024-01-25T12:56:23;6.37;;;4.10;;
7340;SDS011;6870;50.944;6.932;2024-01-25T12:58:51;6.97;;;4.40;;
7340;SDS011;6870;50.944;6.932;2024-01-25T13:01:19;6.63;;;4.60;;
7340;SDS011;6870;50.944;6.932;2024-01-25T13:03:48;7.63;;;4.40;;
7340;SDS011;6870;50.944;6.932;2024-01-25T13:06:18;4.83;;;3.30;;
7340;SDS011;6870;50.944;6.932;2024-01-25T13:08:46;5.93;;;4.50;;
7340;SDS011;6870;50.944;6.932;2024-01-25T13:11:15;8.33;;;4.60;;
7340;SDS011;6870;50.944;6.932;2024-01-25T13:13:43;6.30;;;4.53;;
7340;SDS011;6870;50.944;6.932;2024-01-25T13:16:12;8.70;;;4.10;;
7340;SDS011;6870;50.944;6.932;2024-01-25T13:18:40;6.07;;;4.23;;
7340;SDS011;6870;50.944;6.932;2024-01-25T13:21:08;7.07;;;4.67;;
7340;SDS011;6870;50.944;6.932;2024-01-25T13:23:37;7.07;;;4.20;;
7340;SDS011;6870;50.944;6.932;2024-01-25T13:26:05;7.23;;;5.07;;
7340;SDS011;6870;50.944;6.932;2024-01-25T13:28:33;6.57;;;4.23;;
7340;SDS011;6870;50.944;6.932;2024-01-25T13:31:02;6.93;;;4.50;;
7340;SDS011;6870;50.944;6.932;2024-01-25T13:33:30;7.37;;;4.80;;
7340;SDS011;6870;50.944;6.932;2024-01-25T13:35:58;6.60;;;4.60;;
7340;SDS011;6870;50.944;6.932;2024-01-25T13:38:27;6.80;;;4.90;;
7340;SDS011;6870;50.944;6.932;2024-01-25T13:40:56;7.33;;;4.33;;
7340;SDS011;6870;50.944;6.932;2024-01-25T13:43:24;6.50;;;4.70;;
7340;SDS011;6870;50.944;6.932;2024-01-25T13:45:52;6.20;;;4.60;;
7340;SDS011;6870;50.944;6.932;2024-01-25T13:48:21;7.30;;;3.97;;
7340;SDS011;6870;50.944;6.932;2024-01-25T13:50:49;8.23;;;4.60;;
7340;SDS011;6870;50.944;6.932;2024-01-25T13:53:18;6.10;;;4.20;;
7340;SDS011;6870;50.944;6.932;2024-01-25T13:55:46;6.80;;;4.10;;
7340;SDS011;6870;50.944;6.932;2024-01-25T13:58:15;6.73;;;4.20;;
7340;SDS011;6870;50.944;6.932;2024-01-25T14:00:43;8.73;;;5.00;;
7340;SDS011;6870;50.944;6.932;2024-01-25T14:03:14;7.60;;;5.30;;
7340;SDS011;6870;50.944;6.932;2024-01-25T14:05:43;5.67;;;3.80;;
7340;SDS011;6870;50.944;6.932;2024-01-25T14:08:11;6.57;;;4.47;;
7340;SDS011;6870;50.944;6.932;2024-01-25T14:10:39;7.53;;;4.23;;
7340;SDS011;6870;50.944;6.932;2024-01-25T14:13:07;5.93;;;4.17;;
7340;SDS011;6870;50.944;6.932;2024-01-25T14:15:37;5.87;;;3.60;;
7340;SDS011;6870;50.944;6.932;2024-01-25T14:18:06;7.63;;;4.00;;
7340;SDS011;6870;50.944;6.932;2024-01-25T14:20:34;7.37;;;4.60;;
7340;SDS011;6870;50.944;6.932;2024-01-25T14:23:03;6.60;;;4.37;;
7340;SDS011;6870;50.944;6.932;2024-01-25T14:25:31;6.73;;;4.90;;
7340;SDS011;6870;50.944;6.932;2024-01-25T14:27:59;6.87;;;3.83;;
7340;SDS011;6870;50.944;6.932;2024-01-25T14:30:28;8.50;;;5.40;;
7340;SDS011;6870;50.944;6.932;2024-01-25T14:32:57;5.30;;;4.33;;
7340;SDS011;6870;50.944;6.932;2024-01-25T14:35:25;7.13;;;4.27;;
7340;SDS011;6870;50.944;6.932;2024-01-25T14:37:55;6.40;;;4.07;;
7340;SDS011;6870;50.944;6.932;2024-01-25T14:40:24;7.23;;;4.73;;
7340;SDS011;6870;50.944;6.932;2024-01-25T14:43:12;6.87;;;4.67;;
7340;SDS011;6870;50.944;6.932;2024-01-25T14:45:42;6.87;;;4.27;;
7340;SDS011;6870;50.944;6.932;2024-01-25T14:48:12;8.47;;;4.37;;
7340;SDS011;6870;50.944;6.932;2024-01-25T14:50:40;6.77;;;4.23;;
7340;SDS011;6870;50.944;6.932;2024-01-25T14:53:08;6.10;;;4.10;;
7340;SDS011;6870;50.944;6.932;2024-01-25T14:55:36;7.37;;;4.90;;
7340;SDS011;6870;50.944;6.932;2024-01-25T14:58:04;6.33;;;4.00;;
7340;SDS011;6870;50.944;6.932;2024-01-25T15:00:34;7.00;;;4.40;;
7340;SDS011;6870;50.944;6.932;2024-01-25T15:03:02;5.37;;;3.73;;
7340;SDS011;6870;50.944;6.932;2024-01-25T15:05:32;4.50;;;3.23;;
7340;SDS011;6870;50.944;6.932;2024-01-25T15:08:00;6.50;;;4.30;;
7340;SDS011;6870;50.944;6.932;2024-01-25T15:10:29;6.17;;;3.50;;
7340;SDS011;6870;50.944;6.932;2024-01-25T15:12:57;3.97;;;3.47;;
7340;SDS011;6870;50.944;6.932;2024-01-25T15:15:26;4.80;;;3.73;;
7340;SDS011;6870;50.944;6.932;2024-01-25T15:17:54;6.70;;;4.50;;
7340;SDS011;6870;50.944;6.932;2024-01-25T15:20:23;5.57;;;3.57;;
7340;SDS011;6870;50.944;6.932;2024-01-25T15:22:52;5.30;;;3.33;;
7340;SDS011;6870;50.944;6.932;2024-01-25T15:25:23;5.90;;;3.87;;